sensor_id;sensor_type;location;lat;lon;timestamp;pressure;altitude;pressure_sealevel;temperature;humidity
12949;BME280;6539;49.476;8.484;2023-04-08T00:01:32;100908.44;;;12.18;66.85
12949;BME280;6539;49.476;8.484;2023-04-08T00:03:57;100915.47;;;12.19;66.79
12949;BME280;6539;49.476;8.484;2023-04-08T00:06:23;100912.72;;;12.19;66.26
12949;BME280;6539;49.476;8.484;2023-04-08T00:08:49;100909.97;;;12.19;66.64
12949;BME280;6539;49.476;8.484;2023-04-08T00:11:14;100909.19;;;12.18;66.65
12949;BME280;6539;49.476;8.484;2023-04-08T00:13:40;100910.81;;;12.16;66.64
12949;BME280;6539;49.476;8.484;2023-04-08T00:16:06;100912.72;;;12.19;66.63
12949;BME280;6539;49.476;8.484;2023-04-08T00:18:34;100918.66;;;12.17;66.44
12949;BME280;6539;49.476;8.484;2023-04-08T00:21:03;100915.09;;;12.17;66.67
12949;BME280;6539;49.476;8.484;2023-04-08T00:23:28;100917.06;;;12.16;66.85
12949;BME280;6539;49.476;8.484;2023-04-08T00:25:54;100917.84;;;12.17;67.04
12949;BME280;6539;49.476;8.484;2023-04-08T00:28:20;100920.19;;;12.18;67.12
12949;BME280;6539;49.476;8.484;2023-04-08T00:30:46;100921.78;;;12.19;67.10
12949;BME280;6539;49.476;8.484;2023-04-08T00:33:12;100913.94;;;12.18;66.95
12949;BME280;6539;49.476;8.484;2023-04-08T00:35:38;100909.19;;;12.22;67.13
12949;BME280;6539;49.476;8.484;2023-04-08T00:38:03;100919.41;;;12.21;66.96
12949;BME280;6539;49.476;8.484;2023-04-08T00:40:33;100919.78;;;12.23;67.00
12949;BME280;6539;49.476;8.484;2023-04-08T00:43:02;100913.47;;;12.23;66.82
12949;BME280;6539;49.476;8.484;2023-04-08T00:45:28;100909.16;;;12.25;66.78
12949;BME280;6539;49.476;8.484;2023-04-08T00:47:56;100918.59;;;12.24;66.84
12949;BME280;6539;49.476;8.484;2023-04-08T00:50:22;100920.16;;;12.25;66.90
12949;BME280;6539;49.476;8.484;2023-04-08T00:52:50;100915.81;;;12.28;66.99
12949;BME280;6539;49.476;8.484;2023-04-08T00:55:21;100918.56;;;12.28;67.17
12949;BME280;6539;49.476;8.484;2023-04-08T00:57:49;100920.16;;;12.25;66.98
12949;BME280;6539;49.476;8.484;2023-04-08T01:00:17;100917.84;;;12.20;67.17
12949;BME280;6539;49.476;8.484;2023-04-08T01:03:15;100927.25;;;12.23;67.04
12949;BME280;6539;49.476;8.484;2023-04-08T01:06:02;100927.66;;;12.21;67.33
12949;BME280;6539;49.476;8.484;2023-04-08T01:08:36;100923.75;;;12.22;67.12
12949;BME280;6539;49.476;8.484;2023-04-08T01:11:09;100929.63;;;12.21;67.77
12949;BME280;6539;49.476;8.484;2023-04-08T01:13:41;100924.50;;;12.23;66.97
12949;BME280;6539;49.476;8.484;2023-04-08T01:16:13;100920.97;;;12.22;67.27
12949;BME280;6539;49.476;8.484;2023-04-08T01:18:42;100918.59;;;12.24;66.95
12949;BME280;6539;49.476;8.484;2023-04-08T01:21:15;100915.84;;;12.21;66.90
12949;BME280;6539;49.476;8.484;2023-04-08T01:26:34;100921.75;;;12.27;66.41
12949;BME280;6539;49.476;8.484;2023-04-08T01:29:04;100917.03;;;12.23;66.38
12949;BME280;6539;49.476;8.484;2023-04-08T01:31:38;100919.41;;;12.21;66.76
12949;BME280;6539;49.476;8.484;2023-04-08T01:34:10;100913.91;;;12.21;66.93
12949;BME280;6539;49.476;8.484;2023-04-08T01:36:43;100921.00;;;12.19;66.53
12949;BME280;6539;49.476;8.484;2023-04-08T01:39:16;100921.44;;;12.14;66.68
12949;BME280;6539;49.476;8.484;2023-04-08T01:41:49;100922.59;;;12.13;67.52
12949;BME280;6539;49.476;8.484;2023-04-08T01:44:17;100921.81;;;12.12;67.17
12949;BME280;6539;49.476;8.484;2023-04-08T01:46:44;100925.38;;;12.09;67.11
12949;BME280;6539;49.476;8.484;2023-04-08T01:49:15;100924.19;;;12.10;67.60
12949;BME280;6539;49.476;8.484;2023-04-08T01:51:43;100921.81;;;12.12;67.07
12949;BME280;6539;49.476;8.484;2023-04-08T01:54:10;100917.13;;;12.09;67.45
12949;BME280;6539;49.476;8.484;2023-04-08T01:56:41;100915.97;;;12.07;67.45
12949;BME280;6539;49.476;8.484;2023-04-08T01:59:13;100921.06;;;12.08;67.37
12949;BME280;6539;49.476;8.484;2023-04-08T02:01:42;100918.72;;;12.07;67.23
12949;BME280;6539;49.476;8.484;2023-04-08T02:04:09;100919.13;;;12.02;67.82
12949;BME280;6539;49.476;8.484;2023-04-08T02:06:36;100924.22;;;12.03;67.70
12949;BME280;6539;49.476;8.484;2023-04-08T02:09:02;100921.09;;;12.01;68.06
12949;BME280;6539;49.476;8.484;2023-04-08T02:11:28;100924.25;;;12.00;67.88
12949;BME280;6539;49.476;8.484;2023-04-08T02:13:55;100920.72;;;11.99;67.89
12949;BME280;6539;49.476;8.484;2023-04-08T02:16:27;100921.13;;;11.98;68.04
12949;BME280;6539;49.476;8.484;2023-04-08T02:19:14;100921.91;;;11.98;68.14
12949;BME280;6539;49.476;8.484;2023-04-08T02:21:51;100925.84;;;11.97;67.91
12949;BME280;6539;49.476;8.484;2023-04-08T02:24:22;100918.41;;;11.94;68.31
12949;BME280;6539;49.476;8.484;2023-04-08T02:26:50;100921.09;;;12.01;68.01
12949;BME280;6539;49.476;8.484;2023-04-08T02:29:18;100924.63;;;12.02;68.34
12949;BME280;6539;49.476;8.484;2023-04-08T02:31:48;100923.06;;;12.04;68.18
12949;BME280;6539;49.476;8.484;2023-04-08T02:34:22;100923.06;;;12.04;67.92
12949;BME280;6539;49.476;8.484;2023-04-08T02:36:50;100915.59;;;12.01;68.02
12949;BME280;6539;49.476;8.484;2023-04-08T02:39:21;100927.00;;;12.00;68.09
12949;BME280;6539;49.476;8.484;2023-04-08T02:41:54;100930.16;;;11.98;67.78
12949;BME280;6539;49.476;8.484;2023-04-08T02:44:20;100928.59;;;11.97;68.08
12949;BME280;6539;49.476;8.484;2023-04-08T02:46:48;100924.28;;;11.96;68.45
12949;BME280;6539;49.476;8.484;2023-04-08T02:49:14;100926.66;;;11.94;68.44
12949;BME280;6539;49.476;8.484;2023-04-08T02:51:41;100932.94;;;11.91;68.49
12949;BME280;6539;49.476;8.484;2023-04-08T02:54:07;100930.59;;;11.90;68.44
12949;BME280;6539;49.476;8.484;2023-04-08T02:56:35;100925.91;;;11.87;68.92
12949;BME280;6539;49.476;8.484;2023-04-08T02:59:03;100920.41;;;11.83;68.97
12949;BME280;6539;49.476;8.484;2023-04-08T03:01:34;100926.31;;;11.82;68.89
12949;BME280;6539;49.476;8.484;2023-04-08T03:04:02;100922.78;;;11.81;69.28
12949;BME280;6539;49.476;8.484;2023-04-08T03:06:29;100923.19;;;11.76;69.24
12949;BME280;6539;49.476;8.484;2023-04-08T03:08:56;100922.03;;;11.77;69.30
12949;BME280;6539;49.476;8.484;2023-04-08T03:11:22;100933.00;;;11.81;69.09
12949;BME280;6539;49.476;8.484;2023-04-08T03:13:48;100929.09;;;11.78;69.71
12949;BME280;6539;49.476;8.484;2023-04-08T03:16:16;100927.53;;;11.77;69.68
12949;BME280;6539;49.476;8.484;2023-04-08T03:18:45;100925.53;;;11.81;69.34
12949;BME280;6539;49.476;8.484;2023-04-08T03:21:15;100927.09;;;11.82;69.15
12949;BME280;6539;49.476;8.484;2023-04-08T03:23:44;100929.84;;;11.82;69.27
12949;BME280;6539;49.476;8.484;2023-04-08T03:26:12;100929.47;;;11.80;69.70
12949;BME280;6539;49.476;8.484;2023-04-08T03:28:40;100929.09;;;11.78;69.78
12949;BME280;6539;49.476;8.484;2023-04-08T03:31:06;100932.63;;;11.79;69.69
12949;BME280;6539;49.476;8.484;2023-04-08T03:33:31;100928.66;;;11.80;69.84
12949;BME280;6539;49.476;8.484;2023-04-08T03:36:00;100936.13;;;11.83;69.69
12949;BME280;6539;49.476;8.484;2023-04-08T03:38:27;100938.09;;;11.82;69.41
12949;BME280;6539;49.476;8.484;2023-04-08T03:40:56;100927.50;;;11.81;69.53
12949;BME280;6539;49.476;8.484;2023-04-08T03:43:21;100933.78;;;11.81;69.59
12949;BME280;6539;49.476;8.484;2023-04-08T03:45:47;100934.97;;;11.80;69.72
12949;BME280;6539;49.476;8.484;2023-04-08T03:48:13;100933.78;;;11.81;69.83
12949;BME280;6539;49.476;8.484;2023-04-08T03:50:41;100940.06;;;11.82;69.58
12949;BME280;6539;49.476;8.484;2023-04-08T03:53:09;100929.06;;;11.82;69.49
12949;BME280;6539;49.476;8.484;2023-04-08T03:55:36;100936.91;;;11.80;69.86
12949;BME280;6539;49.476;8.484;2023-04-08T03:58:05;100939.66;;;11.80;69.90
12949;BME280;6539;49.476;8.484;2023-04-08T04:00:34;100946.34;;;11.82;69.43
12949;BME280;6539;49.476;8.484;2023-04-08T04:03:05;100942.03;;;11.81;69.53
12949;BME280;6539;49.476;8.484;2023-04-08T04:05:33;100939.28;;;11.78;69.97
12949;BME280;6539;49.476;8.484;2023-04-08T04:08:01;100944.03;;;11.77;70.03
12949;BME280;6539;49.476;8.484;2023-04-08T04:10:32;100947.16;;;11.79;69.94
12949;BME280;6539;49.476;8.484;2023-04-08T04:12:57;100952.66;;;11.76;69.92
12949;BME280;6539;49.476;8.484;2023-04-08T04:15:25;100953.06;;;11.74;70.11
12949;BME280;6539;49.476;8.484;2023-04-08T04:17:53;100946.78;;;11.77;70.63
12949;BME280;6539;49.476;8.484;2023-04-08T04:20:19;100951.09;;;11.78;70.16
12949;BME280;6539;49.476;8.484;2023-04-08T04:22:50;100946.78;;;11.77;70.48
12949;BME280;6539;49.476;8.484;2023-04-08T04:25:19;100953.06;;;11.74;70.26
12949;BME280;6539;49.476;8.484;2023-04-08T04:27:44;100954.25;;;11.77;70.58
12949;BME280;6539;49.476;8.484;2023-04-08T04:30:10;100959.75;;;11.77;70.48
12949;BME280;6539;49.476;8.484;2023-04-08T04:32:42;100963.28;;;11.77;70.35
12949;BME280;6539;49.476;8.484;2023-04-08T04:35:12;100960.16;;;11.75;70.34
12949;BME280;6539;49.476;8.484;2023-04-08T04:37:40;100965.25;;;11.77;70.29
12949;BME280;6539;49.476;8.484;2023-04-08T04:40:09;100962.13;;;11.75;70.86
12949;BME280;6539;49.476;8.484;2023-04-08T04:42:35;100966.81;;;11.74;70.42
12949;BME280;6539;49.476;8.484;2023-04-08T04:45:00;100958.22;;;11.69;70.20
12949;BME280;6539;49.476;8.484;2023-04-08T04:47:30;100960.56;;;11.70;70.61
12949;BME280;6539;49.476;8.484;2023-04-08T04:49:59;100958.19;;;11.72;70.83
12949;BME280;6539;49.476;8.484;2023-04-08T04:52:26;100969.56;;;11.74;70.03
12949;BME280;6539;49.476;8.484;2023-04-08T04:54:51;100970.38;;;11.75;70.09
12949;BME280;6539;49.476;8.484;2023-04-08T04:57:17;100971.16;;;11.72;70.45
12949;BME280;6539;49.476;8.484;2023-04-08T04:59:45;100972.34;;;11.71;70.07
12949;BME280;6539;49.476;8.484;2023-04-08T05:02:10;100971.56;;;11.70;70.27
12949;BME280;6539;49.476;8.484;2023-04-08T05:04:41;100970.75;;;11.70;69.94
12949;BME280;6539;49.476;8.484;2023-04-08T05:07:06;100977.84;;;11.67;70.09
12949;BME280;6539;49.476;8.484;2023-04-08T05:09:34;100969.97;;;11.73;70.40
12949;BME280;6539;49.476;8.484;2023-04-08T05:12:00;100976.66;;;11.75;70.05
12949;BME280;6539;49.476;8.484;2023-04-08T05:14:28;100973.91;;;11.72;70.45
12949;BME280;6539;49.476;8.484;2023-04-08T05:16:57;100981.75;;;11.73;69.82
12949;BME280;6539;49.476;8.484;2023-04-08T05:19:30;100982.94;;;11.72;69.65
12949;BME280;6539;49.476;8.484;2023-04-08T05:21:58;100986.88;;;11.75;69.11
12949;BME280;6539;49.476;8.484;2023-04-08T05:24:24;100986.47;;;11.76;69.51
12949;BME280;6539;49.476;8.484;2023-04-08T05:26:50;100989.63;;;11.75;68.96
12949;BME280;6539;49.476;8.484;2023-04-08T05:29:20;100992.00;;;11.73;69.08
12949;BME280;6539;49.476;8.484;2023-04-08T05:31:46;100999.06;;;11.70;69.16
12949;BME280;6539;49.476;8.484;2023-04-08T05:34:12;101006.91;;;11.72;68.94
12949;BME280;6539;49.476;8.484;2023-04-08T05:36:38;100995.13;;;11.71;68.73
12949;BME280;6539;49.476;8.484;2023-04-08T05:39:08;100995.94;;;11.68;68.44
12949;BME280;6539;49.476;8.484;2023-04-08T05:41:34;100996.72;;;11.69;68.51
12949;BME280;6539;49.476;8.484;2023-04-08T05:43:59;100999.84;;;11.67;67.75
12949;BME280;6539;49.476;8.484;2023-04-08T05:46:28;100993.94;;;11.72;68.00
12949;BME280;6539;49.476;8.484;2023-04-08T05:48:56;100999.44;;;11.72;67.36
12949;BME280;6539;49.476;8.484;2023-04-08T05:51:26;101000.97;;;11.80;66.23
12949;BME280;6539;49.476;8.484;2023-04-08T05:53:52;101002.13;;;11.93;66.23
12949;BME280;6539;49.476;8.484;2023-04-08T05:56:23;101006.75;;;12.10;65.18
12949;BME280;6539;49.476;8.484;2023-04-08T05:58:48;101016.47;;;12.33;64.11
12949;BME280;6539;49.476;8.484;2023-04-08T06:01:14;101012.78;;;12.57;63.46
12949;BME280;6539;49.476;8.484;2023-04-08T06:03:44;101024.38;;;12.85;61.85
12949;BME280;6539;49.476;8.484;2023-04-08T06:06:13;101019.63;;;12.93;60.36
12949;BME280;6539;49.476;8.484;2023-04-08T06:08:43;101030.22;;;12.98;60.79
12949;BME280;6539;49.476;8.484;2023-04-08T06:11:12;101029.00;;;13.06;60.37
12949;BME280;6539;49.476;8.484;2023-04-08T06:13:39;101031.69;;;13.13;59.80
12949;BME280;6539;49.476;8.484;2023-04-08T06:16:12;101027.81;;;13.48;58.66
12949;BME280;6539;49.476;8.484;2023-04-08T06:18:40;101028.16;;;13.87;57.97
12949;BME280;6539;49.476;8.484;2023-04-08T06:21:09;101038.19;;;14.08;56.52
12949;BME280;6539;49.476;8.484;2023-04-08T06:23:35;101034.94;;;14.16;55.65
12949;BME280;6539;49.476;8.484;2023-04-08T06:26:00;101038.75;;;14.29;55.05
12949;BME280;6539;49.476;8.484;2023-04-08T06:28:28;101040.44;;;14.16;54.84
12949;BME280;6539;49.476;8.484;2023-04-08T06:30:55;101044.38;;;14.19;55.00
12949;BME280;6539;49.476;8.484;2023-04-08T06:33:21;101048.78;;;14.43;54.50
12949;BME280;6539;49.476;8.484;2023-04-08T06:35:47;101040.00;;;15.05;52.93
12949;BME280;6539;49.476;8.484;2023-04-08T06:38:13;101049.03;;;15.75;51.34
12949;BME280;6539;49.476;8.484;2023-04-08T06:40:41;101048.75;;;16.28;47.20
12949;BME280;6539;49.476;8.484;2023-04-08T06:43:09;101044.19;;;16.73;45.95
12949;BME280;6539;49.476;8.484;2023-04-08T06:45:35;101048.66;;;17.19;44.43
12949;BME280;6539;49.476;8.484;2023-04-08T06:48:01;101050.19;;;17.36;44.14
12949;BME280;6539;49.476;8.484;2023-04-08T06:50:29;101048.13;;;17.85;42.73
12949;BME280;6539;49.476;8.484;2023-04-08T06:52:57;101053.00;;;18.22;42.11
12949;BME280;6539;49.476;8.484;2023-04-08T06:55:25;101059.00;;;18.50;40.86
12949;BME280;6539;49.476;8.484;2023-04-08T06:57:51;101058.22;;;18.62;40.19
12949;BME280;6539;49.476;8.484;2023-04-08T07:00:17;101052.56;;;18.78;40.08
12949;BME280;6539;49.476;8.484;2023-04-08T07:02:43;101064.88;;;19.02;40.12
12949;BME280;6539;49.476;8.484;2023-04-08T07:05:11;101065.22;;;19.17;39.53
12949;BME280;6539;49.476;8.484;2023-04-08T07:07:40;101060.50;;;19.39;38.84
12949;BME280;6539;49.476;8.484;2023-04-08T07:10:06;101067.59;;;19.52;38.60
12949;BME280;6539;49.476;8.484;2023-04-08T07:12:32;101075.28;;;19.61;38.38
12949;BME280;6539;49.476;8.484;2023-04-08T07:14:57;101072.72;;;19.54;38.65
12949;BME280;6539;49.476;8.484;2023-04-08T07:17:26;101077.06;;;19.55;38.45
12949;BME280;6539;49.476;8.484;2023-04-08T07:19:52;101071.72;;;19.82;38.16
12949;BME280;6539;49.476;8.484;2023-04-08T07:22:18;101075.47;;;20.01;37.87
12949;BME280;6539;49.476;8.484;2023-04-08T07:24:46;101079.22;;;20.07;37.61
12949;BME280;6539;49.476;8.484;2023-04-08T07:27:17;101078.72;;;20.21;36.45
12949;BME280;6539;49.476;8.484;2023-04-08T07:29:43;101086.19;;;20.24;35.78
12949;BME280;6539;49.476;8.484;2023-04-08T07:32:13;101080.91;;;20.26;35.64
12949;BME280;6539;49.476;8.484;2023-04-08T07:34:41;101082.50;;;20.27;34.78
12949;BME280;6539;49.476;8.484;2023-04-08T07:37:06;101090.69;;;19.53;35.43
12949;BME280;6539;49.476;8.484;2023-04-08T07:39:32;101097.75;;;18.82;36.47
12949;BME280;6539;49.476;8.484;2023-04-08T07:42:01;101095.91;;;18.09;37.77
12949;BME280;6539;49.476;8.484;2023-04-08T07:44:31;101101.13;;;17.62;38.60
12949;BME280;6539;49.476;8.484;2023-04-08T07:46:59;101101.38;;;17.19;39.49
12949;BME280;6539;49.476;8.484;2023-04-08T07:49:25;101103.19;;;16.94;40.10
12949;BME280;6539;49.476;8.484;2023-04-08T07:51:51;101111.94;;;16.92;40.17
12949;BME280;6539;49.476;8.484;2023-04-08T07:54:20;101110.06;;;16.69;40.46
12949;BME280;6539;49.476;8.484;2023-04-08T07:56:45;101101.38;;;16.48;41.17
12949;BME280;6539;49.476;8.484;2023-04-08T07:59:14;101109.34;;;16.26;41.61
12949;BME280;6539;49.476;8.484;2023-04-08T08:01:39;101112.97;;;16.03;42.48
12949;BME280;6539;49.476;8.484;2023-04-08T08:04:05;101111.00;;;15.81;43.38
12949;BME280;6539;49.476;8.484;2023-04-08T08:06:36;101111.84;;;15.58;44.32
12949;BME280;6539;49.476;8.484;2023-04-08T08:09:04;101114.88;;;15.64;44.29
12949;BME280;6539;49.476;8.484;2023-04-08T08:11:30;101120.41;;;15.64;44.29
12949;BME280;6539;49.476;8.484;2023-04-08T08:13:59;101115.59;;;15.68;44.35
12949;BME280;6539;49.476;8.484;2023-04-08T08:16:30;101116.56;;;15.81;43.86
12949;BME280;6539;49.476;8.484;2023-04-08T08:19:01;101122.19;;;15.97;43.34
12949;BME280;6539;49.476;8.484;2023-04-08T08:21:28;101121.66;;;16.25;41.23
12949;BME280;6539;49.476;8.484;2023-04-08T08:23:57;101113.47;;;16.38;40.07
12949;BME280;6539;49.476;8.484;2023-04-08T08:26:24;101117.25;;;16.47;40.02
12949;BME280;6539;49.476;8.484;2023-04-08T08:28:50;101125.50;;;16.70;39.39
12949;BME280;6539;49.476;8.484;2023-04-08T08:31:20;101127.44;;;16.90;38.75
12949;BME280;6539;49.476;8.484;2023-04-08T08:33:46;101117.44;;;17.12;38.71
12949;BME280;6539;49.476;8.484;2023-04-08T08:36:12;101119.94;;;17.38;38.33
12949;BME280;6539;49.476;8.484;2023-04-08T08:38:38;101125.50;;;17.71;37.60
12949;BME280;6539;49.476;8.484;2023-04-08T08:41:03;101126.09;;;17.62;38.75
12949;BME280;6539;49.476;8.484;2023-04-08T08:43:30;101132.28;;;17.53;38.76
12949;BME280;6539;49.476;8.484;2023-04-08T08:45:58;101132.50;;;17.43;38.98
12949;BME280;6539;49.476;8.484;2023-04-08T08:48:24;101138.59;;;17.22;39.67
12949;BME280;6539;49.476;8.484;2023-04-08T08:50:52;101145.53;;;17.14;39.73
12949;BME280;6539;49.476;8.484;2023-04-08T08:53:18;101134.13;;;17.08;40.02
12949;BME280;6539;49.476;8.484;2023-04-08T08:55:47;101141.41;;;17.02;39.98
12949;BME280;6539;49.476;8.484;2023-04-08T08:58:14;101147.00;;;16.83;40.37
12949;BME280;6539;49.476;8.484;2023-04-08T09:00:41;101142.59;;;16.85;40.21
12949;BME280;6539;49.476;8.484;2023-04-08T09:05:54;101145.31;;;17.05;39.41
12949;BME280;6539;49.476;8.484;2023-04-08T09:08:36;101150.63;;;17.15;39.55
12949;BME280;6539;49.476;8.484;2023-04-08T09:11:17;101150.53;;;17.19;38.66
12949;BME280;6539;49.476;8.484;2023-04-08T09:13:44;101150.91;;;17.21;39.04
12949;BME280;6539;49.476;8.484;2023-04-08T09:16:18;101146.50;;;17.72;38.67
12949;BME280;6539;49.476;8.484;2023-04-08T09:18:49;101153.63;;;18.46;37.85
12949;BME280;6539;49.476;8.484;2023-04-08T09:21:16;101149.81;;;18.94;37.39
12949;BME280;6539;49.476;8.484;2023-04-08T09:23:48;101151.53;;;19.42;36.21
12949;BME280;6539;49.476;8.484;2023-04-08T09:26:22;101146.09;;;19.38;35.49
12949;BME280;6539;49.476;8.484;2023-04-08T09:29:00;101144.69;;;19.30;35.46
12949;BME280;6539;49.476;8.484;2023-04-08T09:31:34;101149.38;;;19.33;35.06
12949;BME280;6539;49.476;8.484;2023-04-08T09:34:16;101150.81;;;18.87;35.47
12949;BME280;6539;49.476;8.484;2023-04-08T09:36:44;101146.22;;;18.68;36.22
12949;BME280;6539;49.476;8.484;2023-04-08T09:39:16;101142.75;;;18.52;36.10
12949;BME280;6539;49.476;8.484;2023-04-08T09:41:49;101152.44;;;18.31;36.66
12949;BME280;6539;49.476;8.484;2023-04-08T09:44:25;101147.38;;;18.13;36.90
12949;BME280;6539;49.476;8.484;2023-04-08T09:47:07;101156.38;;;17.73;37.33
12949;BME280;6539;49.476;8.484;2023-04-08T09:49:50;101150.25;;;17.65;37.70
12949;BME280;6539;49.476;8.484;2023-04-08T09:52:34;101155.13;;;17.61;37.96
12949;BME280;6539;49.476;8.484;2023-04-08T09:55:08;101151.44;;;17.48;38.29
12949;BME280;6539;49.476;8.484;2023-04-08T09:57:43;101145.88;;;17.48;38.58
12949;BME280;6539;49.476;8.484;2023-04-08T10:00:15;101154.47;;;17.37;38.86
12949;BME280;6539;49.476;8.484;2023-04-08T10:05:43;101155.50;;;17.43;38.19
12949;BME280;6539;49.476;8.484;2023-04-08T10:08:11;101150.41;;;17.42;38.10
12949;BME280;6539;49.476;8.484;2023-04-08T10:10:39;101155.06;;;17.29;38.08
12949;BME280;6539;49.476;8.484;2023-04-08T10:13:07;101152.97;;;17.17;38.40
12949;BME280;6539;49.476;8.484;2023-04-08T10:15:36;101151.75;;;17.18;38.47
12949;BME280;6539;49.476;8.484;2023-04-08T10:30:54;101155.00;;;16.61;38.24
12949;BME280;6539;49.476;8.484;2023-04-08T10:38:40;101151.84;;;16.20;38.72
12949;BME280;6539;49.476;8.484;2023-04-08T10:41:10;101165.41;;;16.14;38.99
12949;BME280;6539;49.476;8.484;2023-04-08T10:43:38;101159.00;;;15.97;38.74
12949;BME280;6539;49.476;8.484;2023-04-08T10:46:04;101162.69;;;15.91;38.62
12949;BME280;6539;49.476;8.484;2023-04-08T10:48:33;101168.69;;;15.86;38.21
12949;BME280;6539;49.476;8.484;2023-04-08T10:51:00;101166.34;;;15.84;38.41
12949;BME280;6539;49.476;8.484;2023-04-08T10:53:35;101169.91;;;15.85;38.66
12949;BME280;6539;49.476;8.484;2023-04-08T10:56:11;101168.03;;;15.78;39.00
12949;BME280;6539;49.476;8.484;2023-04-08T10:58:52;101169.91;;;15.85;39.07
12949;BME280;6539;49.476;8.484;2023-04-08T11:01:23;101171.47;;;15.86;38.63
12949;BME280;6539;49.476;8.484;2023-04-08T11:03:49;101162.72;;;15.87;38.33
12949;BME280;6539;49.476;8.484;2023-04-08T11:06:17;101161.88;;;15.90;38.28
12949;BME280;6539;49.476;8.484;2023-04-08T11:08:45;101171.69;;;15.95;38.33
12949;BME280;6539;49.476;8.484;2023-04-08T11:11:11;101164.09;;;15.99;38.54
12949;BME280;6539;49.476;8.484;2023-04-08T11:13:42;101171.97;;;16.00;38.91
12949;BME280;6539;49.476;8.484;2023-04-08T11:16:10;101161.97;;;16.07;38.99
12949;BME280;6539;49.476;8.484;2023-04-08T11:18:38;101165.28;;;15.98;39.05
12949;BME280;6539;49.476;8.484;2023-04-08T11:21:10;101160.97;;;15.97;39.34
12949;BME280;6539;49.476;8.484;2023-04-08T11:23:36;101169.75;;;15.92;39.48
12949;BME280;6539;49.476;8.484;2023-04-08T11:26:03;101154.72;;;15.93;39.57
12949;BME280;6539;49.476;8.484;2023-04-08T11:28:31;101155.44;;;15.97;39.74
12949;BME280;6539;49.476;8.484;2023-04-08T11:30:58;101155.78;;;15.99;39.52
12949;BME280;6539;49.476;8.484;2023-04-08T11:33:30;101156.16;;;16.01;39.32
12949;BME280;6539;49.476;8.484;2023-04-08T11:35:56;101152.03;;;16.09;38.68
12949;BME280;6539;49.476;8.484;2023-04-08T11:38:23;101160.09;;;16.23;37.73
12949;BME280;6539;49.476;8.484;2023-04-08T11:40:57;101155.50;;;16.36;36.93
12949;BME280;6539;49.476;8.484;2023-04-08T11:43:24;101152.00;;;16.52;36.57
12949;BME280;6539;49.476;8.484;2023-04-08T11:45:51;101157.78;;;16.61;36.31
12949;BME280;6539;49.476;8.484;2023-04-08T11:48:19;101153.22;;;16.70;36.34
12949;BME280;6539;49.476;8.484;2023-04-08T11:50:49;101150.66;;;16.80;36.17
12949;BME280;6539;49.476;8.484;2023-04-08T11:53:26;101149.84;;;16.99;36.37
12949;BME280;6539;49.476;8.484;2023-04-08T11:55:53;101149.16;;;17.11;36.15
12949;BME280;6539;49.476;8.484;2023-04-08T11:58:18;101151.16;;;17.26;36.15
12949;BME280;6539;49.476;8.484;2023-04-08T12:00:44;101148.28;;;17.30;36.04
12949;BME280;6539;49.476;8.484;2023-04-08T12:03:10;101149.78;;;17.34;36.43
12949;BME280;6539;49.476;8.484;2023-04-08T12:05:39;101148.13;;;17.37;35.60
12949;BME280;6539;49.476;8.484;2023-04-08T12:08:07;101145.34;;;17.37;35.78
12949;BME280;6539;49.476;8.484;2023-04-08T12:10:35;101141.19;;;17.29;36.66
12949;BME280;6539;49.476;8.484;2023-04-08T12:13:01;101141.34;;;17.22;37.28
12949;BME280;6539;49.476;8.484;2023-04-08T12:15:27;101150.91;;;17.21;37.46
12949;BME280;6539;49.476;8.484;2023-04-08T12:17:52;101139.88;;;17.17;37.68
12949;BME280;6539;49.476;8.484;2023-04-08T12:20:21;101137.72;;;17.25;37.40
12949;BME280;6539;49.476;8.484;2023-04-08T12:22:51;101134.50;;;17.26;37.31
12949;BME280;6539;49.476;8.484;2023-04-08T12:25:19;101138.94;;;17.40;37.28
12949;BME280;6539;49.476;8.484;2023-04-08T12:27:45;101146.84;;;17.41;36.98
12949;BME280;6539;49.476;8.484;2023-04-08T12:30:14;101145.19;;;17.44;36.76
12949;BME280;6539;49.476;8.484;2023-04-08T12:32:42;101141.19;;;17.45;36.88
12949;BME280;6539;49.476;8.484;2023-04-08T12:35:10;101141.19;;;17.45;37.17
12949;BME280;6539;49.476;8.484;2023-04-08T12:37:36;101138.06;;;17.43;37.04
12949;BME280;6539;49.476;8.484;2023-04-08T12:40:05;101145.19;;;17.44;36.59
12949;BME280;6539;49.476;8.484;2023-04-08T12:42:33;101137.28;;;17.42;36.77
12949;BME280;6539;49.476;8.484;2023-04-08T12:45:02;101134.34;;;17.33;37.05
12949;BME280;6539;49.476;8.484;2023-04-08T12:47:28;101129.94;;;17.36;37.13
12949;BME280;6539;49.476;8.484;2023-04-08T12:49:57;101136.41;;;17.45;36.77
12949;BME280;6539;49.476;8.484;2023-04-08T12:52:23;101136.88;;;17.76;36.49
12949;BME280;6539;49.476;8.484;2023-04-08T12:54:49;101130.50;;;17.92;36.06
12949;BME280;6539;49.476;8.484;2023-04-08T12:57:17;101126.16;;;17.91;36.44
12949;BME280;6539;49.476;8.484;2023-04-08T12:59:43;101131.47;;;17.85;36.26
12949;BME280;6539;49.476;8.484;2023-04-08T13:02:11;101126.97;;;17.75;36.26
12949;BME280;6539;49.476;8.484;2023-04-08T13:04:36;101130.47;;;17.63;36.60
12949;BME280;6539;49.476;8.484;2023-04-08T13:07:02;101123.25;;;17.66;36.96
12949;BME280;6539;49.476;8.484;2023-04-08T13:09:32;101123.34;;;17.62;37.13
12949;BME280;6539;49.476;8.484;2023-04-08T13:11:58;101119.25;;;17.67;37.23
12949;BME280;6539;49.476;8.484;2023-04-08T13:14:24;101128.16;;;17.90;37.23
12949;BME280;6539;49.476;8.484;2023-04-08T13:16:52;101122.16;;;18.20;36.89
12949;BME280;6539;49.476;8.484;2023-04-08T13:19:20;101121.91;;;18.44;36.62
12949;BME280;6539;49.476;8.484;2023-04-08T13:21:45;101117.94;;;18.45;36.47
12949;BME280;6539;49.476;8.484;2023-04-08T13:24:13;101111.84;;;18.34;36.60
12949;BME280;6539;49.476;8.484;2023-04-08T13:26:39;101114.72;;;18.17;36.91
12949;BME280;6539;49.476;8.484;2023-04-08T13:29:05;101119.03;;;18.18;36.92
12949;BME280;6539;49.476;8.484;2023-04-08T13:31:31;101115.41;;;18.21;37.50
12949;BME280;6539;49.476;8.484;2023-04-08T13:33:56;101112.47;;;18.12;37.26